SJC weather

Norman Y. Mineta San Jose International Airport
San Jose, California, United States

Public forecast

Using degrees Fahrenheit for public forecast. Weather courtesy of forecast.io.

Current aviation weather report (METAR) for Norman Y. Mineta San Jose International Airport

Retrieved 2020/02/27 07:53 UTC (34 minutes ago):

KSJC 270753Z 00000KT 10SM FEW050 FEW150 13/05 A3026 RMK AO2 SLP247 LAST T01330050 402500078

Aviation forecast (TAF) for Norman Y. Mineta San Jose International Airport

Retrieved 2020/02/27 06:36 UTC (2 hours ago):

TAF KSJC 270533Z 2706/2806 VRB03KT P6SM FEW200 FM271800 31003KT P6SM SKC FM272200 31007KT P6SM SKC FM280300 VRB03KT P6SM FEW200